Time;durP1;ratioP1;P1;durP2;ratioP2;P2;SDS_P1;SDS_P2;PMS_P1;PMS_P2;Temp;Humidity;BMP_temperature;BMP_pressure;BME280_temperature;BME280_humidity;BME280_pressure;Samples;Min_cycle;Max_cycle;Signal;HPM_P1;HPM_P2
2021/09/24 00:04:54;;;;;;;0.10;0.00;;;;;;;;;;10371733;28;20131;-66
2021/09/24 00:09:56;;;;;;;0.00;0.00;;;;;;;;;;10375571;28;20810;-66
2021/09/24 00:15:01;;;;;;;0.00;0.00;;;;;;;;;;10375436;28;20045;-66
2021/09/24 00:20:06;;;;;;;0.00;0.00;;;;;;;;;;10383003;28;20959;-66
2021/09/24 00:25:09;;;;;;;0.00;0.00;;;;;;;;;;10374162;28;20050;-66
2021/09/24 00:30:15;;;;;;;0.00;0.00;;;;;;;;;;10377704;28;20051;-67
2021/09/24 00:35:17;;;;;;;0.00;0.00;;;;;;;;;;10373401;28;20136;-67
2021/09/24 00:40:20;;;;;;;0.00;0.00;;;;;;;;;;10386896;28;20046;-67
2021/09/24 00:45:24;;;;;;;0.00;0.00;;;;;;;;;;10379689;28;20538;-65
2021/09/24 00:50:27;;;;;;;0.00;0.00;;;;;;;;;;10387836;28;20407;-65
2021/09/24 00:55:31;;;;;;;0.00;0.00;;;;;;;;;;10386042;28;20049;-64
2021/09/24 01:00:35;;;;;;;0.10;0.00;;;;;;;;;;10385790;28;20325;-65
2021/09/24 01:05:38;;;;;;;0.00;0.00;;;;;;;;;;10385274;28;20044;-65
2021/09/24 01:10:41;;;;;;;0.00;0.00;;;;;;;;;;10384771;28;20065;-65
2021/09/24 01:15:45;;;;;;;0.10;0.10;;;;;;;;;;10384353;28;20115;-65
2021/09/24 01:20:49;;;;;;;0.00;0.00;;;;;;;;;;10391072;28;20045;-65
2021/09/24 01:25:53;;;;;;;0.10;0.10;;;;;;;;;;10390292;28;20042;-65
2021/09/24 01:30:56;;;;;;;0.00;0.00;;;;;;;;;;10388446;28;20073;-65
2021/09/24 01:35:58;;;;;;;0.10;0.10;;;;;;;;;;10365430;28;20044;-65
2021/09/24 01:41:03;;;;;;;0.05;0.05;;;;;;;;;;10383913;28;20069;-65
2021/09/24 01:46:06;;;;;;;0.05;0.05;;;;;;;;;;10372229;28;20054;-65
2021/09/24 01:51:09;;;;;;;0.10;0.10;;;;;;;;;;10384672;28;20049;-65
2021/09/24 01:56:13;;;;;;;0.15;0.10;;;;;;;;;;10370213;28;20038;-65
2021/09/24 02:01:16;;;;;;;0.05;0.05;;;;;;;;;;10391115;28;20128;-65
2021/09/24 02:06:19;;;;;;;0.00;0.00;;;;;;;;;;10372333;28;20080;-65
2021/09/24 02:11:23;;;;;;;0.00;0.00;;;;;;;;;;10384189;28;20057;-66
2021/09/24 02:16:26;;;;;;;0.10;0.10;;;;;;;;;;10379297;28;20155;-65
2021/09/24 02:21:29;;;;;;;0.00;0.00;;;;;;;;;;10381903;28;20056;-66
2021/09/24 02:26:33;;;;;;;0.03;0.03;;;;;;;;;;10382760;28;20046;-65
2021/09/24 02:31:44;;;;;;;;;;;;;;;;;;10377970;28;20384;-66
2021/09/24 02:36:47;;;;;;;0.10;0.10;;;;;;;;;;10381104;28;20280;-66
2021/09/24 02:41:51;;;;;;;0.10;0.10;;;;;;;;;;10392030;28;20080;-65
2021/09/24 02:46:54;;;;;;;0.00;0.00;;;;;;;;;;10384930;28;20045;-66
2021/09/24 02:51:56;;;;;;;0.00;0.00;;;;;;;;;;10383407;28;20048;-66
2021/09/24 02:57:01;;;;;;;0.10;0.10;;;;;;;;;;10387496;28;20116;-66
2021/09/24 03:02:04;;;;;;;0.13;0.05;;;;;;;;;;10385508;28;20720;-66
2021/09/24 03:07:07;;;;;;;0.10;0.10;;;;;;;;;;10390453;28;20042;-65
2021/09/24 03:12:11;;;;;;;0.10;0.10;;;;;;;;;;10377494;28;20058;-66
2021/09/24 03:17:15;;;;;;;0.10;0.10;;;;;;;;;;10369025;28;20124;-66
2021/09/24 03:22:18;;;;;;;0.00;0.00;;;;;;;;;;10367063;28;20045;-66
2021/09/24 03:27:23;;;;;;;0.10;0.10;;;;;;;;;;10376548;28;20057;-65
2021/09/24 03:32:26;;;;;;;0.10;0.10;;;;;;;;;;10387482;28;20047;-65
2021/09/24 03:37:29;;;;;;;0.08;0.08;;;;;;;;;;10367611;28;20053;-65
2021/09/24 03:42:33;;;;;;;0.10;0.10;;;;;;;;;;10369824;28;20152;-66
2021/09/24 03:47:37;;;;;;;0.00;0.00;;;;;;;;;;10369273;28;20171;-66
2021/09/24 03:52:40;;;;;;;0.10;0.10;;;;;;;;;;10369930;28;20061;-66
2021/09/24 03:57:44;;;;;;;0.25;0.10;;;;;;;;;;10378068;28;20124;-65
2021/09/24 04:02:47;;;;;;;0.00;0.00;;;;;;;;;;10380132;28;20116;-65
2021/09/24 04:07:50;;;;;;;0.00;0.00;;;;;;;;;;10376103;28;20052;-65
2021/09/24 04:18:46;;;;;;;0.10;0.10;;;;;;;;;;10383783;28;20508;-66
2021/09/24 04:23:49;;;;;;;0.10;0.10;;;;;;;;;;10382344;28;20115;-66
2021/09/24 04:28:53;;;;;;;0.10;0.10;;;;;;;;;;10385769;28;20578;-66
2021/09/24 04:34:00;;;;;;;0.03;0.03;;;;;;;;;;10389090;28;20038;-66
2021/09/24 04:39:03;;;;;;;0.00;0.00;;;;;;;;;;10390365;28;20049;-66
2021/09/24 04:44:06;;;;;;;0.00;0.00;;;;;;;;;;10393796;28;20101;-66
2021/09/24 04:49:10;;;;;;;0.10;0.10;;;;;;;;;;10389501;28;20045;-66
2021/09/24 04:54:13;;;;;;;0.00;0.00;;;;;;;;;;10371443;28;20044;-66
2021/09/24 04:59:16;;;;;;;0.10;0.10;;;;;;;;;;10374422;28;20052;-66
2021/09/24 05:04:20;;;;;;;0.10;0.10;;;;;;;;;;10385604;28;20121;-67
2021/09/24 05:09:23;;;;;;;0.08;0.08;;;;;;;;;;10383595;28;20057;-67
2021/09/24 05:14:25;;;;;;;0.10;0.10;;;;;;;;;;10377803;28;20060;-66
2021/09/24 05:19:30;;;;;;;0.10;0.10;;;;;;;;;;10378299;28;20080;-66
2021/09/24 05:24:32;;;;;;;0.00;0.00;;;;;;;;;;10386866;28;20056;-66
2021/09/24 05:29:35;;;;;;;0.10;0.10;;;;;;;;;;10391030;28;20038;-66
2021/09/24 05:34:39;;;;;;;0.10;0.10;;;;;;;;;;10383788;28;20040;-66
2021/09/24 05:39:43;;;;;;;0.00;0.00;;;;;;;;;;10384619;28;20125;-65
2021/09/24 05:44:45;;;;;;;0.00;0.00;;;;;;;;;;10384275;28;20044;-65
2021/09/24 05:49:50;;;;;;;0.10;0.10;;;;;;;;;;10385487;28;20049;-65
2021/09/24 05:54:54;;;;;;;0.10;0.00;;;;;;;;;;10383089;28;20943;-65
2021/09/24 05:59:56;;;;;;;0.10;0.10;;;;;;;;;;10388736;28;20081;-65
2021/09/24 06:05:00;;;;;;;0.00;0.00;;;;;;;;;;10384258;28;20518;-65
2021/09/24 06:10:04;;;;;;;0.00;0.00;;;;;;;;;;10385189;28;20057;-65
2021/09/24 06:15:07;;;;;;;0.10;0.10;;;;;;;;;;10386406;28;20045;-65
2021/09/24 06:20:12;;;;;;;0.00;0.00;;;;;;;;;;10388766;28;20042;-66
2021/09/24 06:25:15;;;;;;;0.10;0.10;;;;;;;;;;10385278;28;20048;-66
2021/09/24 06:30:20;;;;;;;0.10;0.10;;;;;;;;;;10376104;28;20157;-66
2021/09/24 06:35:24;;;;;;;0.00;0.00;;;;;;;;;;10367611;28;20384;-66
2021/09/24 06:40:27;;;;;;;0.10;0.10;;;;;;;;;;10371357;28;20057;-66
2021/09/24 06:45:30;;;;;;;0.08;0.08;;;;;;;;;;10369946;28;20428;-66
2021/09/24 06:50:35;;;;;;;0.00;0.00;;;;;;;;;;10381027;28;20051;-66
2021/09/24 06:55:39;;;;;;;0.10;0.10;;;;;;;;;;10386708;28;20046;-66
2021/09/24 07:00:41;;;;;;;0.10;0.10;;;;;;;;;;10380978;28;20107;-66
2021/09/24 07:05:46;;;;;;;0.00;0.00;;;;;;;;;;10380408;28;20029;-66
2021/09/24 07:10:49;;;;;;;0.00;0.00;;;;;;;;;;10381444;28;20192;-66
2021/09/24 07:15:52;;;;;;;0.10;0.10;;;;;;;;;;10380469;28;20045;-66
2021/09/24 07:20:56;;;;;;;0.00;0.00;;;;;;;;;;10385598;28;20052;-66
2021/09/24 07:25:59;;;;;;;0.10;0.10;;;;;;;;;;10383793;28;20033;-66
2021/09/24 07:31:02;;;;;;;0.10;0.10;;;;;;;;;;10379617;28;20042;-66
2021/09/24 07:36:06;;;;;;;0.10;0.10;;;;;;;;;;10383531;28;20045;-66
2021/09/24 07:41:09;;;;;;;0.03;0.03;;;;;;;;;;10384223;28;20057;-66
2021/09/24 07:46:12;;;;;;;0.03;0.03;;;;;;;;;;10386622;28;20066;-65
2021/09/24 07:51:16;;;;;;;0.00;0.00;;;;;;;;;;10387118;28;20045;-66
2021/09/24 07:56:19;;;;;;;0.00;0.00;;;;;;;;;;10379830;28;20045;-65
2021/09/24 08:01:24;;;;;;;0.00;0.00;;;;;;;;;;10374065;28;20049;-66
2021/09/24 08:06:29;;;;;;;0.00;0.00;;;;;;;;;;10372806;28;20107;-66
2021/09/24 08:11:32;;;;;;;0.00;0.00;;;;;;;;;;10388167;28;20523;-65
2021/09/24 08:16:34;;;;;;;0.03;0.03;;;;;;;;;;10388460;28;20044;-65
2021/09/24 08:21:39;;;;;;;0.00;0.00;;;;;;;;;;10383934;28;20037;-65
2021/09/24 08:26:41;;;;;;;0.10;0.10;;;;;;;;;;10368834;28;20042;-65
2021/09/24 08:31:44;;;;;;;0.00;0.00;;;;;;;;;;10382833;28;20053;-65
2021/09/24 08:36:48;;;;;;;0.00;0.00;;;;;;;;;;10383372;28;20468;-66
2021/09/24 08:41:51;;;;;;;0.10;0.10;;;;;;;;;;10380093;28;20049;-65
2021/09/24 08:46:55;;;;;;;0.00;0.00;;;;;;;;;;10380672;28;20067;-66
2021/09/24 08:51:59;;;;;;;0.00;0.00;;;;;;;;;;10380189;28;20051;-65
2021/09/24 08:57:02;;;;;;;0.00;0.00;;;;;;;;;;10368645;28;20037;-65
2021/09/24 09:02:06;;;;;;;0.03;0.03;;;;;;;;;;10372418;28;20052;-65
2021/09/24 09:07:11;;;;;;;0.00;0.00;;;;;;;;;;10371963;28;20041;-65
2021/09/24 09:12:15;;;;;;;0.05;0.05;;;;;;;;;;10384556;28;20054;-65
2021/09/24 09:17:29;;;;;;;0.00;0.00;;;;;;;;;;10387754;28;20037;-65
2021/09/24 09:22:34;;;;;;;0.00;0.00;;;;;;;;;;10386034;28;20516;-65
2021/09/24 09:27:37;;;;;;;0.00;0.00;;;;;;;;;;10391590;28;20046;-65
2021/09/24 09:32:40;;;;;;;0.00;0.00;;;;;;;;;;10388223;28;20049;-65
2021/09/24 09:37:44;;;;;;;0.00;0.00;;;;;;;;;;10391493;28;20045;-66
2021/09/24 09:42:47;;;;;;;0.20;0.10;;;;;;;;;;10385759;28;20049;-66
2021/09/24 09:47:50;;;;;;;0.00;0.00;;;;;;;;;;10387924;28;20045;-66
2021/09/24 09:53:02;;;;;;;0.10;0.10;;;;;;;;;;10387788;28;20053;-66
2021/09/24 09:58:08;;;;;;;0.00;0.00;;;;;;;;;;10388611;28;20049;-66
2021/09/24 10:03:11;;;;;;;0.00;0.00;;;;;;;;;;10386845;28;20415;-66
2021/09/24 10:08:26;;;;;;;0.00;0.00;;;;;;;;;;10392023;28;20084;-66
2021/09/24 10:13:30;;;;;;;0.00;0.00;;;;;;;;;;10389309;28;20061;-66
2021/09/24 10:18:33;;;;;;;0.08;0.05;;;;;;;;;;10379712;28;20054;-66
2021/09/24 10:23:37;;;;;;;0.00;0.00;;;;;;;;;;10378968;28;20054;-66
2021/09/24 10:28:42;;;;;;;0.00;0.00;;;;;;;;;;10385552;28;20045;-66
2021/09/24 10:33:46;;;;;;;0.00;0.00;;;;;;;;;;10376815;28;20045;-66
2021/09/24 10:38:50;;;;;;;0.00;0.00;;;;;;;;;;10372192;28;20096;-66
2021/09/24 10:43:54;;;;;;;0.00;0.00;;;;;;;;;;10380052;28;20753;-66
2021/09/24 10:49:16;;;;;;;0.00;0.00;;;;;;;;;;10378331;28;20147;-66
2021/09/24 10:54:20;;;;;;;;;;;;;;;;;;10376747;28;20050;-66
2021/09/24 10:59:29;;;;;;;0.00;0.00;;;;;;;;;;10387460;28;19921;-66
2021/09/24 11:04:42;;;;;;;0.10;0.10;;;;;;;;;;10371571;28;20866;-66
2021/09/24 11:09:52;;;;;;;0.00;0.00;;;;;;;;;;10373794;28;20386;-66
2021/09/24 11:15:07;;;;;;;0.00;0.00;;;;;;;;;;10380114;28;20047;-66
2021/09/24 11:20:30;;;;;;;0.00;0.00;;;;;;;;;;10383955;28;20046;-66
2021/09/24 11:25:33;;;;;;;0.00;0.00;;;;;;;;;;10374606;28;20245;-67
2021/09/24 11:30:46;;;;;;;0.00;0.00;;;;;;;;;;10384177;28;20395;-66
2021/09/24 11:35:49;;;;;;;0.03;0.03;;;;;;;;;;10378009;28;20132;-65
2021/09/24 11:40:53;;;;;;;0.28;0.20;;;;;;;;;;10378624;28;20058;-65
2021/09/24 11:45:59;;;;;;;0.00;0.00;;;;;;;;;;10378262;28;20072;-65
2021/09/24 11:51:12;;;;;;;0.03;0.03;;;;;;;;;;10378235;28;20510;-65
2021/09/24 11:56:17;;;;;;;0.00;0.00;;;;;;;;;;10378095;28;20034;-65
2021/09/24 12:01:23;;;;;;;0.00;0.00;;;;;;;;;;10377529;28;20050;-65
2021/09/24 12:06:29;;;;;;;0.00;0.00;;;;;;;;;;10388868;28;20048;-66
2021/09/24 12:11:40;;;;;;;0.00;0.00;;;;;;;;;;10380476;28;20065;-65
2021/09/24 12:16:45;;;;;;;0.00;0.00;;;;;;;;;;10384068;28;20104;-65
2021/09/24 12:21:49;;;;;;;0.15;0.00;;;;;;;;;;10384582;28;20079;-65
2021/09/24 12:27:02;;;;;;;0.00;0.00;;;;;;;;;;10388415;28;20141;-65
2021/09/24 12:32:06;;;;;;;0.30;0.10;;;;;;;;;;10385200;28;20127;-65
2021/09/24 12:37:10;;;;;;;0.10;0.10;;;;;;;;;;10384417;28;20538;-65
2021/09/24 12:42:16;;;;;;;0.00;0.00;;;;;;;;;;10370059;28;20057;-65
2021/09/24 12:47:22;;;;;;;0.00;0.00;;;;;;;;;;10391496;28;20407;-65
2021/09/24 12:52:26;;;;;;;0.10;0.10;;;;;;;;;;10386833;28;20045;-66
2021/09/24 12:57:32;;;;;;;0.00;0.00;;;;;;;;;;10389308;28;20499;-73
2021/09/24 13:02:36;;;;;;;0.10;0.05;;;;;;;;;;10375636;28;20073;-67
2021/09/24 13:07:44;;;;;;;0.00;0.00;;;;;;;;;;10382670;28;20107;-68
2021/09/24 13:12:47;;;;;;;0.25;0.10;;;;;;;;;;10376410;28;20512;-67
2021/09/24 13:17:55;;;;;;;0.00;0.00;;;;;;;;;;10389692;28;20112;-66
2021/09/24 13:22:58;;;;;;;0.10;0.10;;;;;;;;;;10376260;28;20053;-65
2021/09/24 13:28:17;;;;;;;0.08;0.08;;;;;;;;;;10386065;28;20049;-68
2021/09/24 13:33:22;;;;;;;0.03;0.03;;;;;;;;;;10378268;28;20041;-68
2021/09/24 13:38:25;;;;;;;0.00;0.00;;;;;;;;;;10393979;28;20516;-62
2021/09/24 13:43:28;;;;;;;0.00;0.00;;;;;;;;;;10379875;28;20060;-62
2021/09/24 13:48:33;;;;;;;0.05;0.05;;;;;;;;;;10381349;28;20045;-63
2021/09/24 13:53:36;;;;;;;0.10;0.10;;;;;;;;;;10382713;28;20883;-63
2021/09/24 13:58:39;;;;;;;0.00;0.00;;;;;;;;;;10377276;28;20038;-63
2021/09/24 14:03:43;;;;;;;0.00;0.00;;;;;;;;;;10380350;28;20388;-67
2021/09/24 14:08:46;;;;;;;0.00;0.00;;;;;;;;;;10377458;28;20045;-67
2021/09/24 14:13:49;;;;;;;0.10;0.00;;;;;;;;;;10377343;28;20045;-65
2021/09/24 14:18:54;;;;;;;0.00;0.00;;;;;;;;;;10383703;28;20042;-64
2021/09/24 14:23:57;;;;;;;0.10;0.00;;;;;;;;;;10382567;28;20045;-64
2021/09/24 14:29:00;;;;;;;0.00;0.00;;;;;;;;;;10381586;28;20124;-64
2021/09/24 14:34:04;;;;;;;0.00;0.00;;;;;;;;;;10381784;28;20051;-64
2021/09/24 14:39:07;;;;;;;0.00;0.00;;;;;;;;;;10376070;28;20054;-64
2021/09/24 14:44:10;;;;;;;0.77;0.10;;;;;;;;;;10374507;28;20041;-64
2021/09/24 14:49:14;;;;;;;0.10;0.00;;;;;;;;;;10377616;28;20046;-63
2021/09/24 14:54:17;;;;;;;0.00;0.00;;;;;;;;;;10375305;28;20148;-64
2021/09/24 14:59:20;;;;;;;0.03;0.03;;;;;;;;;;10376292;28;20748;-63
2021/09/24 15:04:25;;;;;;;0.00;0.00;;;;;;;;;;10379680;28;20041;-64
2021/09/24 15:09:29;;;;;;;0.10;0.00;;;;;;;;;;10376596;28;20057;-64
2021/09/24 15:14:34;;;;;;;0.00;0.00;;;;;;;;;;10359662;28;20637;-64
2021/09/24 15:19:38;;;;;;;0.00;0.00;;;;;;;;;;10362528;28;20475;-63
2021/09/24 15:24:41;;;;;;;0.00;0.00;;;;;;;;;;10367928;28;20411;-64
2021/09/24 15:29:44;;;;;;;0.00;0.00;;;;;;;;;;10368401;28;20048;-64
2021/09/24 15:34:48;;;;;;;0.00;0.00;;;;;;;;;;10356766;28;20144;-64
2021/09/24 15:39:51;;;;;;;0.10;0.10;;;;;;;;;;10362431;28;20041;-64
2021/09/24 15:44:54;;;;;;;0.00;0.00;;;;;;;;;;10360752;28;20037;-64
2021/09/24 15:49:58;;;;;;;0.00;0.00;;;;;;;;;;10361552;28;20047;-64
2021/09/24 15:55:01;;;;;;;0.00;0.00;;;;;;;;;;10367263;28;20049;-64
2021/09/24 16:00:04;;;;;;;0.45;0.00;;;;;;;;;;10366329;28;20056;-63
2021/09/24 16:05:14;;;;;;;0.00;0.00;;;;;;;;;;10368515;28;20057;-63
2021/09/24 16:10:17;;;;;;;0.03;0.03;;;;;;;;;;10368653;28;20626;-63
2021/09/24 16:15:20;;;;;;;0.00;0.00;;;;;;;;;;10370215;28;20779;-63
2021/09/24 16:20:24;;;;;;;0.03;0.03;;;;;;;;;;10378107;28;20041;-64
2021/09/24 16:25:28;;;;;;;0.00;0.00;;;;;;;;;;10383600;28;20060;-64
2021/09/24 16:30:32;;;;;;;0.00;0.00;;;;;;;;;;10383538;28;20045;-65
2021/09/24 16:35:37;;;;;;;0.00;0.00;;;;;;;;;;10383035;28;20095;-63
2021/09/24 16:40:40;;;;;;;0.00;0.00;;;;;;;;;;10385200;28;20055;-64
2021/09/24 16:45:46;;;;;;;0.00;0.00;;;;;;;;;;10386747;28;20058;-64
2021/09/24 16:50:50;;;;;;;0.00;0.00;;;;;;;;;;10389688;28;20502;-63
2021/09/24 16:55:53;;;;;;;0.15;0.00;;;;;;;;;;10374751;28;20060;-63
2021/09/24 17:00:56;;;;;;;0.00;0.00;;;;;;;;;;10373901;28;20053;-64
2021/09/24 17:06:00;;;;;;;0.00;0.00;;;;;;;;;;10386759;28;20052;-65
2021/09/24 17:11:03;;;;;;;0.00;0.00;;;;;;;;;;10386208;28;20828;-66
2021/09/24 17:16:06;;;;;;;0.00;0.00;;;;;;;;;;10380564;28;20131;-65
2021/09/24 17:21:11;;;;;;;0.00;0.00;;;;;;;;;;10381982;28;20041;-65
2021/09/24 17:26:13;;;;;;;0.05;0.05;;;;;;;;;;10388277;28;20143;-64
2021/09/24 17:31:16;;;;;;;0.00;0.00;;;;;;;;;;10381555;28;20464;-64
2021/09/24 17:36:21;;;;;;;0.00;0.00;;;;;;;;;;10379591;28;20060;-63
2021/09/24 17:41:23;;;;;;;0.00;0.00;;;;;;;;;;10361270;28;20457;-67
2021/09/24 17:46:26;;;;;;;0.00;0.00;;;;;;;;;;10368308;28;20495;-64
2021/09/24 17:51:42;;;;;;;0.00;0.00;;;;;;;;;;10374078;28;20075;-67
2021/09/24 17:56:45;;;;;;;0.00;0.00;;;;;;;;;;10373534;28;20049;-66
2021/09/24 18:01:48;;;;;;;0.00;0.00;;;;;;;;;;10370755;28;20045;-64
2021/09/24 18:06:52;;;;;;;0.10;0.05;;;;;;;;;;10366241;28;20056;-66
2021/09/24 18:11:55;;;;;;;0.00;0.00;;;;;;;;;;10370996;28;20060;-67
2021/09/24 18:16:58;;;;;;;0.00;0.00;;;;;;;;;;10375506;28;20052;-65
2021/09/24 18:22:04;;;;;;;0.47;0.10;;;;;;;;;;10376446;28;20048;-65
2021/09/24 18:27:07;;;;;;;0.00;0.00;;;;;;;;;;10377649;28;20041;-63
2021/09/24 18:32:11;;;;;;;0.00;0.00;;;;;;;;;;10377768;28;20045;-65
2021/09/24 18:37:15;;;;;;;0.00;0.00;;;;;;;;;;10380128;28;20042;-65
2021/09/24 18:42:18;;;;;;;0.00;0.00;;;;;;;;;;10384056;28;20059;-66
2021/09/24 18:47:21;;;;;;;0.00;0.00;;;;;;;;;;10384825;28;20038;-65
2021/09/24 18:52:26;;;;;;;0.00;0.00;;;;;;;;;;10378581;28;20037;-66
2021/09/24 18:57:28;;;;;;;0.00;0.00;;;;;;;;;;10375695;28;20053;-65
2021/09/24 19:02:32;;;;;;;0.00;0.00;;;;;;;;;;10369698;28;20052;-65
2021/09/24 19:07:38;;;;;;;0.00;0.00;;;;;;;;;;10382930;28;20111;-65
2021/09/24 19:12:42;;;;;;;0.00;0.00;;;;;;;;;;10382901;28;20053;-65
2021/09/24 19:17:45;;;;;;;0.00;0.00;;;;;;;;;;10383003;28;20708;-65
2021/09/24 19:22:50;;;;;;;0.00;0.00;;;;;;;;;;10375793;28;20045;-65
2021/09/24 19:27:53;;;;;;;0.00;0.00;;;;;;;;;;10375824;28;20037;-65
2021/09/24 19:32:55;;;;;;;0.00;0.00;;;;;;;;;;10381995;28;20906;-65
2021/09/24 19:38:03;;;;;;;0.00;0.00;;;;;;;;;;10379001;28;20067;-65
2021/09/24 19:43:06;;;;;;;0.00;0.00;;;;;;;;;;10378828;28;20563;-65
2021/09/24 19:48:09;;;;;;;0.00;0.00;;;;;;;;;;10378430;28;20384;-65
2021/09/24 19:53:14;;;;;;;0.00;0.00;;;;;;;;;;10375179;28;20740;-65
2021/09/24 19:58:17;;;;;;;0.00;0.00;;;;;;;;;;10371815;28;20044;-65
2021/09/24 20:03:20;;;;;;;0.10;0.10;;;;;;;;;;10378035;28;20622;-68
2021/09/24 20:08:25;;;;;;;0.00;0.00;;;;;;;;;;10382088;28;20052;-68
2021/09/24 20:13:27;;;;;;;0.00;0.00;;;;;;;;;;10382631;28;20459;-68
2021/09/24 20:18:30;;;;;;;0.10;0.10;;;;;;;;;;10379688;28;20118;-68
2021/09/24 20:23:36;;;;;;;0.00;0.00;;;;;;;;;;10379174;28;20042;-68
2021/09/24 20:28:40;;;;;;;0.03;0.03;;;;;;;;;;10388370;28;20119;-69
2021/09/24 20:33:43;;;;;;;0.10;0.00;;;;;;;;;;10371881;28;20052;-68
2021/09/24 20:38:47;;;;;;;0.00;0.00;;;;;;;;;;10374422;28;20042;-68
2021/09/24 20:43:50;;;;;;;0.00;0.00;;;;;;;;;;10368657;28;20053;-68
2021/09/24 20:48:53;;;;;;;0.00;0.00;;;;;;;;;;10372077;28;20038;-68
2021/09/24 20:53:58;;;;;;;0.00;0.00;;;;;;;;;;10366107;28;20044;-68
2021/09/24 20:59:00;;;;;;;0.00;0.00;;;;;;;;;;10371657;28;20530;-67
2021/09/24 21:04:04;;;;;;;0.00;0.00;;;;;;;;;;10375535;28;20163;-67
2021/09/24 21:09:09;;;;;;;0.00;0.00;;;;;;;;;;10374290;28;20053;-67
2021/09/24 21:14:11;;;;;;;0.00;0.00;;;;;;;;;;10376241;28;20041;-67
2021/09/24 21:19:14;;;;;;;0.00;0.00;;;;;;;;;;10382086;28;20203;-67
2021/09/24 21:24:19;;;;;;;0.00;0.00;;;;;;;;;;10382400;28;20050;-68
2021/09/24 21:29:21;;;;;;;0.00;0.00;;;;;;;;;;10386135;28;20042;-67
2021/09/24 21:34:24;;;;;;;0.00;0.00;;;;;;;;;;10383964;28;20080;-67
2021/09/24 21:39:29;;;;;;;0.20;0.08;;;;;;;;;;10382027;28;20044;-67
2021/09/24 21:44:31;;;;;;;0.00;0.00;;;;;;;;;;10386133;28;20044;-67
2021/09/24 21:49:34;;;;;;;0.00;0.00;;;;;;;;;;10385113;28;20045;-67
2021/09/24 21:54:38;;;;;;;0.00;0.00;;;;;;;;;;10385540;28;20099;-67
2021/09/24 21:59:41;;;;;;;0.00;0.00;;;;;;;;;;10386733;28;20044;-67
2021/09/24 22:04:44;;;;;;;0.00;0.00;;;;;;;;;;10384119;28;20143;-67
2021/09/24 22:09:48;;;;;;;0.13;0.10;;;;;;;;;;10385078;28;20050;-67
2021/09/24 22:14:51;;;;;;;0.00;0.00;;;;;;;;;;10385482;28;20084;-67
2021/09/24 22:19:54;;;;;;;0.00;0.00;;;;;;;;;;10389420;28;20435;-67
2021/09/24 22:24:58;;;;;;;0.00;0.00;;;;;;;;;;10387333;28;20063;-67
2021/09/24 22:30:02;;;;;;;0.00;0.00;;;;;;;;;;10389360;28;20758;-67
2021/09/24 22:35:05;;;;;;;0.03;0.03;;;;;;;;;;10381219;28;20461;-67
2021/09/24 22:40:11;;;;;;;0.00;0.00;;;;;;;;;;10383549;28;20049;-68
2021/09/24 22:45:14;;;;;;;0.00;0.00;;;;;;;;;;10371969;28;20488;-68
2021/09/24 22:50:18;;;;;;;0.00;0.00;;;;;;;;;;10380316;28;20048;-68
2021/09/24 22:55:22;;;;;;;0.00;0.00;;;;;;;;;;10372469;28;20823;-68
2021/09/24 23:00:25;;;;;;;0.00;0.00;;;;;;;;;;10375285;28;20056;-68
2021/09/24 23:05:28;;;;;;;0.08;0.08;;;;;;;;;;10372975;28;20156;-68
2021/09/24 23:10:32;;;;;;;0.00;0.00;;;;;;;;;;10380640;28;20129;-68
2021/09/24 23:15:35;;;;;;;0.00;0.00;;;;;;;;;;10378405;28;20509;-67
2021/09/24 23:20:38;;;;;;;0.08;0.08;;;;;;;;;;10379746;28;20049;-67
2021/09/24 23:25:42;;;;;;;0.00;0.00;;;;;;;;;;10380485;28;20801;-67
2021/09/24 23:30:45;;;;;;;0.00;0.00;;;;;;;;;;10379934;28;20044;-67
2021/09/24 23:35:48;;;;;;;0.00;0.00;;;;;;;;;;10380760;28;20050;-67
2021/09/24 23:40:52;;;;;;;0.00;0.00;;;;;;;;;;10379612;28;20056;-68
2021/09/24 23:45:55;;;;;;;0.00;0.00;;;;;;;;;;10386392;28;20038;-67
2021/09/24 23:50:58;;;;;;;0.00;0.00;;;;;;;;;;10378170;28;20115;-67
2021/09/24 23:56:02;;;;;;;0.00;0.00;;;;;;;;;;10382143;28;20048;-67
